Terminal Aerodrome Forecast
Issued by NWS Pocatello, ID

Home | Current Version | Previous Version | Text Only | Print | Product List | Glossary On
Versions: 1 2 3 4 5 6 7 8 9 10 11 12 13 14
809
FTUS45 KPIH 310520
TAFPIH
TAF
KPIH 310520Z 3106/0106 21010KT P6SM FEW120
     FM311600 24015KT P6SM FEW090
     FM312000 25017G27KT P6SM SCT090
     FM010300 22010KT P6SM SKC=

USA.gov is the U.S. government's official web portal to all federal, state and local government web resources and services.